Time,TemperatureF,DewpointF,PressureIn,WindDirection,WindDirectionDegrees,WindSpeedMPH,WindSpeedGustMPH,Humidity,HourlyPrecipIn,Conditions,Clouds,dailyrainin,SoftwareType,DateUTC
2017-03-28 00:02:00,50.5,48.8,29.94,North,360,3.7,-999.0,94,-99.99,,,0.00,,2017-03-28 04:02:00,
2017-03-28 00:07:00,50.4,48.5,29.94,NNE,22,5.8,-999.0,93,-99.99,,,0.00,,2017-03-28 04:07:00,
2017-03-28 00:12:00,50.4,48.5,29.94,North,360,3.2,-999.0,93,-99.99,,,0.00,,2017-03-28 04:12:00,
2017-03-28 00:18:00,50.2,48.3,29.94,West,270,3.2,-999.0,93,-99.99,,,0.00,,2017-03-28 04:18:00,
2017-03-28 00:24:00,50.2,48.3,29.94,West,270,2.7,-999.0,93,-99.99,,,0.00,,2017-03-28 04:24:00,
2017-03-28 00:29:00,50.0,48.1,29.94,NW,315,2.7,-999.0,93,-99.99,,,0.00,,2017-03-28 04:29:00,
2017-03-28 00:34:00,50.0,48.1,29.94,WNW,292,2.7,-999.0,93,-99.99,,,0.00,,2017-03-28 04:34:00,
2017-03-28 00:39:00,49.8,47.9,29.94,NNW,337,4.2,-999.0,93,-99.99,,,0.00,,2017-03-28 04:39:00,
2017-03-28 00:45:00,49.8,47.9,29.94,NW,315,3.2,-999.0,93,-99.99,,,0.00,,2017-03-28 04:45:00,
2017-03-28 00:50:00,49.6,47.7,29.94,North,360,4.7,-999.0,93,-99.99,,,0.00,,2017-03-28 04:50:00,
2017-03-28 00:56:00,49.6,47.7,29.94,NNW,337,2.2,-999.0,93,-99.99,,,0.00,,2017-03-28 04:56:00,
2017-03-28 01:01:00,49.6,47.7,29.94,NNW,337,2.7,-999.0,93,-99.99,,,0.00,,2017-03-28 05:01:00,
2017-03-28 01:06:00,49.5,47.6,29.94,NW,315,3.7,-999.0,93,-99.99,,,0.00,,2017-03-28 05:06:00,
2017-03-28 01:11:00,49.5,47.6,29.94,NW,315,3.2,-999.0,93,-99.99,,,0.00,,2017-03-28 05:11:00,
2017-03-28 01:17:00,49.3,47.4,29.95,NNW,337,3.7,-999.0,93,-99.99,,,0.00,,2017-03-28 05:17:00,
2017-03-28 01:22:00,49.3,47.4,29.95,NNW,337,3.7,-999.0,93,-99.99,,,0.00,,2017-03-28 05:22:00,
2017-03-28 01:28:00,49.3,47.4,29.95,NW,315,1.7,-999.0,93,-99.99,,,0.00,,2017-03-28 05:28:00,
2017-03-28 01:33:00,49.1,47.2,29.95,West,270,3.2,-999.0,93,-99.99,,,0.00,,2017-03-28 05:33:00,
2017-03-28 01:39:00,48.9,47.0,29.94,WNW,292,3.2,-999.0,93,-99.99,,,0.00,,2017-03-28 05:39:00,
2017-03-28 01:44:00,48.7,46.8,29.94,North,360,3.7,-999.0,93,-99.99,,,0.00,,2017-03-28 05:44:00,
2017-03-28 01:49:00,48.7,46.8,29.94,WNW,292,2.7,-999.0,93,-99.99,,,0.00,,2017-03-28 05:49:00,
2017-03-28 01:54:00,48.6,46.7,29.94,NNW,337,4.2,-999.0,93,-99.99,,,0.00,,2017-03-28 05:54:00,
2017-03-28 01:59:00,48.6,46.7,29.94,WNW,292,2.2,-999.0,93,-99.99,,,0.00,,2017-03-28 05:59:00,
2017-03-28 02:04:00,48.4,46.5,29.94,WNW,292,2.7,-999.0,93,-99.99,,,0.00,,2017-03-28 06:04:00,
2017-03-28 02:09:00,48.2,46.3,29.94,WSW,247,2.7,-999.0,93,-99.99,,,0.00,,2017-03-28 06:09:00,
2017-03-28 02:14:00,48.2,46.3,29.94,NW,315,2.7,-999.0,93,-99.99,,,0.00,,2017-03-28 06:14:00,
2017-03-28 02:19:00,48.0,46.1,29.94,West,270,4.2,-999.0,93,-99.99,,,0.00,,2017-03-28 06:19:00,
2017-03-28 02:24:00,48.0,46.1,29.94,West,270,2.2,-999.0,93,-99.99,,,0.00,,2017-03-28 06:24:00,
2017-03-28 02:29:00,47.8,45.9,29.94,WNW,292,2.2,-999.0,93,-99.99,,,0.00,,2017-03-28 06:29:00,
2017-03-28 02:34:00,47.7,46.1,29.94,North,360,2.7,-999.0,94,-99.99,,,0.00,,2017-03-28 06:34:00,
2017-03-28 02:39:00,47.7,46.1,29.94,NNW,337,4.2,-999.0,94,-99.99,,,0.00,,2017-03-28 06:39:00,
2017-03-28 02:45:00,47.7,46.1,29.94,WNW,292,1.7,-999.0,94,-99.99,,,0.00,,2017-03-28 06:45:00,
2017-03-28 02:50:00,47.5,45.9,29.94,WNW,292,3.7,-999.0,94,-99.99,,,0.00,,2017-03-28 06:50:00,
2017-03-28 02:55:00,47.5,45.9,29.94,WNW,292,4.2,-999.0,94,-99.99,,,0.00,,2017-03-28 06:55:00,
2017-03-28 03:00:00,47.5,45.9,29.94,WNW,292,4.2,-999.0,94,-99.99,,,0.00,,2017-03-28 07:00:00,
2017-03-28 03:05:00,47.3,45.7,29.94,NW,315,5.8,-999.0,94,-99.99,,,0.00,,2017-03-28 07:05:00,
2017-03-28 03:10:00,47.3,45.7,29.94,WNW,292,3.2,-999.0,94,-99.99,,,0.00,,2017-03-28 07:10:00,
2017-03-28 03:15:00,47.3,45.7,29.94,WNW,292,3.2,-999.0,94,-99.99,,,0.00,,2017-03-28 07:15:00,
2017-03-28 03:21:00,47.1,45.5,29.94,North,360,2.2,-999.0,94,-99.99,,,0.00,,2017-03-28 07:21:00,
2017-03-28 03:26:00,47.1,45.5,29.94,NW,315,3.7,-999.0,94,-99.99,,,0.00,,2017-03-28 07:26:00,
2017-03-28 03:31:00,47.1,45.5,29.94,North,360,2.2,-999.0,94,-99.99,,,0.00,,2017-03-28 07:31:00,
2017-03-28 03:36:00,46.9,45.3,29.94,NNE,22,2.7,-999.0,94,-99.99,,,0.00,,2017-03-28 07:36:00,
2017-03-28 03:41:00,46.9,45.3,29.94,WNW,292,5.3,-999.0,94,-99.99,,,0.00,,2017-03-28 07:41:00,
2017-03-28 03:47:00,46.8,45.2,29.94,WNW,292,1.1,-999.0,94,-99.99,,,0.00,,2017-03-28 07:47:00,
2017-03-28 03:52:00,46.8,45.2,29.94,NNW,337,3.7,-999.0,94,-99.99,,,0.00,,2017-03-28 07:52:00,
2017-03-28 03:57:00,46.6,45.0,29.94,West,270,3.7,-999.0,94,-99.99,,,0.00,,2017-03-28 07:57:00,
2017-03-28 04:02:00,46.6,45.0,29.94,WNW,292,4.2,-999.0,94,-99.99,,,0.00,,2017-03-28 08:02:00,
2017-03-28 04:08:00,46.4,44.8,29.94,NE,45,3.2,-999.0,94,-99.99,,,0.00,,2017-03-28 08:08:00,
2017-03-28 04:13:00,46.4,44.8,29.94,NNE,22,2.7,-999.0,94,-99.99,,,0.00,,2017-03-28 08:13:00,
2017-03-28 04:18:00,46.4,45.0,29.94,NW,315,3.2,-999.0,95,-99.99,,,0.00,,2017-03-28 08:18:00,
2017-03-28 04:34:00,46.2,44.8,29.94,West,270,4.2,-999.0,95,-99.99,,,0.00,,2017-03-28 08:34:00,
2017-03-28 04:39:00,46.0,44.6,29.94,WNW,292,3.7,-999.0,95,-99.99,,,0.00,,2017-03-28 08:39:00,
2017-03-28 04:45:00,45.9,44.8,29.94,NNE,22,5.8,-999.0,96,-99.99,,,0.00,,2017-03-28 08:45:00,
2017-03-28 04:50:00,45.9,44.8,29.95,NNE,22,1.7,-999.0,96,-99.99,,,0.00,,2017-03-28 08:50:00,
2017-03-28 04:55:00,45.9,44.8,29.95,WNW,292,6.3,-999.0,96,-99.99,,,0.00,,2017-03-28 08:55:00,
2017-03-28 05:00:00,45.7,44.9,29.95,NNW,337,5.3,-999.0,97,-99.99,,,0.00,,2017-03-28 09:00:00,
2017-03-28 05:05:00,45.5,44.7,29.95,NW,315,4.7,-999.0,97,-99.99,,,0.00,,2017-03-28 09:05:00,
2017-03-28 05:11:00,45.5,44.7,29.95,NW,315,2.7,-999.0,97,-99.99,,,0.00,,2017-03-28 09:11:00,
2017-03-28 05:21:00,45.1,44.3,29.95,NNW,337,3.7,-999.0,97,-99.99,,,0.00,,2017-03-28 09:21:00,
2017-03-28 05:25:00,45.1,44.3,29.95,North,360,2.7,-999.0,97,-99.99,,,0.00,,2017-03-28 09:25:00,
2017-03-28 05:30:00,45.1,44.3,29.95,NNW,337,2.2,-999.0,97,-99.99,,,0.00,,2017-03-28 09:30:00,